createdAt,value
2018-03-23T00:00:34.313Z,66.64
2018-03-23T00:01:34.326Z,66.83
2018-03-23T00:02:34.338Z,66.83
2018-03-23T00:03:34.344Z,66.93
2018-03-23T00:04:34.359Z,66.64
2018-03-23T00:05:34.370Z,66.93
2018-03-23T00:06:34.380Z,67.4
2018-03-23T00:07:34.393Z,66.64
2018-03-23T00:08:34.398Z,66.64
2018-03-23T00:09:34.127Z,66.93
2018-03-23T00:10:34.141Z,66.55
2018-03-23T00:11:34.155Z,66.55
2018-03-23T00:12:34.443Z,66.74
2018-03-23T00:13:34.454Z,66.36
2018-03-23T00:14:34.467Z,66.64
2018-03-23T00:15:34.477Z,66.46
2018-03-23T00:16:34.491Z,66.55
2018-03-23T00:17:34.504Z,66.74
2018-03-23T00:18:34.526Z,67.02
2018-03-23T00:19:34.238Z,66.46
2018-03-23T00:20:34.249Z,66.46
2018-03-23T00:21:34.543Z,67.21
2018-03-23T00:22:34.556Z,66.74
2018-03-23T00:23:34.566Z,66.83
2018-03-23T00:24:34.578Z,66.93
2018-03-23T00:25:34.630Z,66.46
2018-03-23T00:26:34.607Z,66.83
2018-03-23T00:27:34.612Z,66.36
2018-03-23T00:28:34.338Z,66.36
2018-03-23T00:29:34.633Z,66.46
2018-03-23T00:30:34.358Z,66.46
2018-03-23T00:31:34.654Z,66.36
2018-03-23T00:32:34.664Z,66.46
2018-03-23T00:33:34.674Z,66.46
2018-03-23T00:34:34.686Z,66.64
2018-03-23T00:35:34.700Z,66.64
2018-03-23T00:36:34.706Z,66.46
2018-03-23T00:37:34.717Z,66.83
2018-03-23T00:38:34.445Z,66.64
2018-03-23T00:39:34.456Z,66.46
2018-03-23T00:40:34.468Z,66.36
2018-03-23T00:41:34.771Z,66.46
2018-03-23T00:42:34.490Z,66.46
2018-03-23T00:43:34.784Z,66.83
2018-03-23T00:44:34.798Z,66.64
2018-03-23T00:45:34.523Z,66.46
2018-03-23T00:46:34.533Z,66.83
2018-03-23T00:47:34.832Z,66.55
2018-03-23T00:48:34.843Z,66.93
2018-03-23T00:49:34.852Z,66.64
2018-03-23T00:50:34.865Z,66.83
2018-03-23T00:51:34.874Z,66.74
2018-03-23T00:52:34.883Z,66.74
2018-03-23T00:53:34.903Z,66.74
2018-03-23T00:54:34.948Z,66.64
2018-03-23T00:55:34.640Z,66.83
2018-03-23T00:56:34.925Z,66.64
2018-03-23T00:57:34.939Z,66.46
2018-03-23T00:58:34.665Z,66.83
2018-03-23T00:59:35.016Z,66.83
2018-03-23T01:00:34.688Z,66.83
2018-03-23T01:01:34.979Z,66.55
2018-03-23T01:02:34.712Z,66.83
2018-03-23T01:03:35.002Z,66.46
2018-03-23T01:04:35.015Z,66.55
2018-03-23T01:05:35.023Z,66.36
2018-03-23T01:06:35.115Z,66.55
2018-03-23T01:07:35.050Z,66.46
2018-03-23T01:08:34.785Z,67.12
2018-03-23T01:09:35.074Z,66.64
2018-03-23T01:10:35.083Z,66.46
2018-03-23T01:11:35.091Z,66.46
2018-03-23T01:12:34.818Z,66.27
2018-03-23T01:13:34.831Z,66.74
2018-03-23T01:14:34.906Z,66.83
2018-03-23T01:15:34.857Z,66.93
2018-03-23T01:16:35.148Z,67.02
2018-03-23T01:17:35.166Z,66.83
2018-03-23T01:18:34.894Z,66.93
2018-03-23T01:19:34.897Z,66.93
2018-03-23T01:20:35.206Z,66.93
2018-03-23T01:21:35.204Z,66.93
2018-03-23T01:22:34.928Z,67.02
2018-03-23T01:23:35.222Z,67.02
2018-03-23T01:24:34.954Z,67.12
2018-03-23T01:25:35.242Z,67.02
2018-03-23T01:26:35.255Z,67.12
2018-03-23T01:27:35.268Z,66.93
2018-03-23T01:28:35.000Z,66.83
2018-03-23T01:29:35.293Z,67.31
2018-03-23T01:30:35.311Z,67.02
2018-03-23T01:31:35.309Z,67.12
2018-03-23T01:32:35.040Z,67.31
2018-03-23T01:33:35.055Z,67.12
2018-03-23T01:34:35.071Z,67.02
2018-03-23T01:35:35.354Z,67.02
2018-03-23T01:36:35.146Z,67.12
2018-03-23T01:37:35.099Z,67.12
2018-03-23T01:38:35.106Z,67.12
2018-03-23T01:39:35.401Z,67.12
2018-03-23T01:40:35.412Z,66.93
2018-03-23T01:41:35.438Z,66.83
2018-03-23T01:42:35.432Z,66.93
2018-03-23T01:43:35.446Z,67.02
2018-03-23T01:44:35.459Z,66.74
2018-03-23T01:45:35.465Z,66.64
2018-03-23T01:46:35.195Z,66.74
2018-03-23T01:47:35.489Z,66.36
2018-03-23T01:48:35.503Z,66.55
2018-03-23T01:49:35.514Z,66.55
2018-03-23T01:50:35.530Z,66.55
2018-03-23T01:51:35.251Z,66.46
2018-03-23T01:52:35.544Z,66.36
2018-03-23T01:53:35.553Z,66.74
2018-03-23T01:54:35.565Z,66.64
2018-03-23T01:55:35.577Z,66.64
2018-03-23T01:56:35.590Z,66.74
2018-03-23T01:57:35.317Z,66.74
2018-03-23T01:58:35.324Z,66.64
2018-03-23T01:59:35.337Z,66.64
2018-03-23T02:00:35.348Z,66.36
2018-03-23T02:01:35.646Z,66.36
2018-03-23T02:02:35.654Z,66.36
2018-03-23T02:03:35.664Z,66.36
2018-03-23T02:04:35.393Z,66.46
2018-03-23T02:05:35.692Z,66.36
2018-03-23T02:06:35.697Z,66.36
2018-03-23T02:07:35.710Z,66.36
2018-03-23T02:08:35.717Z,66.55
2018-03-23T02:09:35.450Z,66.36
2018-03-23T02:10:35.744Z,66.74
2018-03-23T02:11:35.753Z,66.64
2018-03-23T02:12:35.477Z,66.36
2018-03-23T02:13:35.490Z,66.55
2018-03-23T02:14:35.781Z,66.64
2018-03-23T02:15:35.796Z,66.55
2018-03-23T02:16:35.805Z,66.64
2018-03-23T02:17:35.815Z,66.27
2018-03-23T02:18:35.835Z,66.64
2018-03-23T02:19:35.842Z,66.64
2018-03-23T02:20:35.566Z,66.64
2018-03-23T02:21:35.872Z,66.46
2018-03-23T02:22:35.870Z,66.36
2018-03-23T02:23:35.883Z,66.36
2018-03-23T02:24:35.904Z,66.36
2018-03-23T02:25:35.917Z,66.36
2018-03-23T02:26:35.916Z,66.46
2018-03-23T02:27:35.644Z,66.36
2018-03-23T02:28:35.960Z,66.74
2018-03-23T02:29:35.947Z,66.74
2018-03-23T02:30:35.680Z,66.55
2018-03-23T02:31:35.977Z,66.64
2018-03-23T02:32:35.991Z,66.64
2018-03-23T02:33:36.004Z,66.55
2018-03-23T02:34:36.009Z,66.55
2018-03-23T02:35:35.735Z,66.55
2018-03-23T02:36:36.031Z,66.64
2018-03-23T02:37:36.037Z,66.74
2018-03-23T02:38:36.054Z,66.55
2018-03-23T02:39:35.777Z,66.36
2018-03-23T02:40:36.072Z,66.55
2018-03-23T02:41:35.800Z,66.27
2018-03-23T02:42:36.094Z,66.17
2018-03-23T02:43:35.824Z,66.17
2018-03-23T02:44:36.116Z,66.08
2018-03-23T02:45:35.849Z,66.17
2018-03-23T02:46:36.139Z,66.17
2018-03-23T02:47:36.148Z,66.17
2018-03-23T02:48:36.162Z,66.93
2018-03-23T02:49:36.181Z,66.36
2018-03-23T02:50:36.184Z,66.46
2018-03-23T02:51:35.909Z,66.36
2018-03-23T02:52:36.202Z,66.46
2018-03-23T02:53:36.215Z,66.36
2018-03-23T02:54:36.283Z,66.64
2018-03-23T02:55:36.236Z,66.17
2018-03-23T02:56:36.248Z,66.36
2018-03-23T02:57:36.261Z,66.64
2018-03-23T02:58:36.272Z,66.36
2018-03-23T02:59:36.288Z,66.36
2018-03-23T03:00:36.015Z,66.55
2018-03-23T03:01:36.070Z,66.36
2018-03-23T03:02:36.313Z,66.55
2018-03-23T03:03:36.333Z,66.27
2018-03-23T03:04:36.054Z,66.27
2018-03-23T03:05:36.350Z,66.64
2018-03-23T03:06:36.375Z,66.36
2018-03-23T03:07:36.086Z,66.27
2018-03-23T03:08:36.381Z,66.93
2018-03-23T03:09:36.394Z,66.93
2018-03-23T03:10:36.406Z,66.08
2018-03-23T03:11:36.414Z,66.08
2018-03-23T03:12:36.140Z,66.74
2018-03-23T03:13:36.439Z,66.74
2018-03-23T03:14:36.447Z,65.79
2018-03-23T03:15:36.174Z,66.08
2018-03-23T03:16:36.525Z,66.46
2018-03-23T03:17:36.479Z,66.55
2018-03-23T03:18:36.491Z,66.08
2018-03-23T03:19:36.503Z,66.27
2018-03-23T03:20:36.518Z,66.08
2018-03-23T03:21:36.574Z,66.08
2018-03-23T03:22:36.535Z,66.17
2018-03-23T03:23:36.546Z,66.36
2018-03-23T03:24:36.277Z,66.55
2018-03-23T03:25:36.572Z,66.36
2018-03-23T03:26:36.298Z,66.27
2018-03-23T03:27:36.306Z,66.74
2018-03-23T03:28:36.617Z,66.64
2018-03-23T03:29:36.613Z,66.08
2018-03-23T03:30:36.344Z,66.36
2018-03-23T03:31:36.639Z,66.55
2018-03-23T03:32:36.367Z,66.46
2018-03-23T03:33:36.657Z,66.27
2018-03-23T03:34:36.385Z,66.08
2018-03-23T03:35:36.682Z,66.08
2018-03-23T03:36:36.691Z,66.64
2018-03-23T03:37:36.703Z,66.55
2018-03-23T03:38:36.716Z,66.46
2018-03-23T03:39:36.723Z,66.74
2018-03-23T03:40:36.455Z,66.08
2018-03-23T03:41:36.512Z,66.27
2018-03-23T03:42:36.761Z,66.27
2018-03-23T03:43:36.766Z,66.74
2018-03-23T03:44:36.783Z,66.17
2018-03-23T03:45:36.507Z,66.74
2018-03-23T03:46:36.849Z,66.08
2018-03-23T03:47:36.814Z,66.64
2018-03-23T03:48:36.825Z,66.74
2018-03-23T03:49:36.835Z,66.74
2018-03-23T03:50:36.845Z,66.08
2018-03-23T03:51:36.860Z,67.02
2018-03-23T03:52:36.876Z,66.08
2018-03-23T03:53:36.595Z,66.46
2018-03-23T03:54:36.608Z,66.93
2018-03-23T03:55:36.907Z,66.17
2018-03-23T03:56:36.910Z,66.17
2018-03-23T03:57:36.923Z,66.36
2018-03-23T03:58:36.935Z,66.74
2018-03-23T03:59:36.663Z,66.27
2018-03-23T04:00:36.956Z,66.93
2018-03-23T04:01:36.965Z,66.36
2018-03-23T04:02:36.976Z,66.08
2018-03-23T04:03:36.987Z,66.36
2018-03-23T04:04:37.004Z,66.27
2018-03-23T04:05:36.729Z,65.88
2018-03-23T04:06:36.742Z,66.46
2018-03-23T04:07:37.038Z,66.46
2018-03-23T04:08:37.057Z,66.08
2018-03-23T04:09:37.061Z,66.08
2018-03-23T04:10:36.786Z,66.08
2018-03-23T04:11:37.132Z,65.79
2018-03-23T04:12:36.806Z,66.55
2018-03-23T04:13:37.104Z,66.08
2018-03-23T04:14:37.119Z,66.36
2018-03-23T04:15:37.125Z,66.74
2018-03-23T04:16:36.850Z,66.17
2018-03-23T04:17:36.862Z,66.27
2018-03-23T04:18:37.158Z,66.27
2018-03-23T04:19:36.890Z,66.17
2018-03-23T04:20:37.176Z,66.27
2018-03-23T04:21:36.910Z,66.55
2018-03-23T04:22:37.200Z,66.27
2018-03-23T04:23:37.217Z,66.27
2018-03-23T04:24:36.939Z,65.98
2018-03-23T04:25:37.230Z,66.36
2018-03-23T04:26:36.960Z,66.27
2018-03-23T04:27:37.257Z,66.27
2018-03-23T04:28:36.984Z,66.27
2018-03-23T04:29:37.279Z,66.17
2018-03-23T04:30:37.006Z,66.55
2018-03-23T04:31:37.309Z,66.36
2018-03-23T04:32:37.314Z,66.36
2018-03-23T04:33:37.038Z,66.36
2018-03-23T04:34:37.334Z,66.36
2018-03-23T04:35:37.342Z,66.55
2018-03-23T04:36:37.356Z,66.55
2018-03-23T04:37:37.365Z,66.27
2018-03-23T04:38:37.377Z,66.64
2018-03-23T04:39:37.393Z,66.46
2018-03-23T04:40:37.399Z,65.88
2018-03-23T04:41:37.410Z,66.46
2018-03-23T04:42:37.423Z,66.55
2018-03-23T04:43:37.440Z,65.98
2018-03-23T04:44:37.164Z,66.36
2018-03-23T04:45:37.456Z,66.46
2018-03-23T04:46:37.472Z,65.79
2018-03-23T04:47:37.478Z,66.17
2018-03-23T04:48:37.497Z,65.88
2018-03-23T04:49:37.222Z,65.69
2018-03-23T04:50:37.511Z,65.79
2018-03-23T04:51:37.239Z,65.79
2018-03-23T04:52:37.533Z,66.17
2018-03-23T04:53:37.546Z,66.08
2018-03-23T04:54:37.557Z,66.11
2018-03-23T04:55:37.289Z,66.11
2018-03-23T04:56:37.587Z,65.98
2018-03-23T04:57:37.307Z,65.79
2018-03-23T04:58:37.603Z,65.79
2018-03-23T04:59:37.615Z,65.92
2018-03-23T05:00:37.340Z,66.11
2018-03-23T05:01:37.636Z,65.82
2018-03-23T05:02:37.653Z,66.08
2018-03-23T05:03:37.374Z,65.79
2018-03-23T05:04:37.384Z,65.6
2018-03-23T05:05:37.681Z,65.92
2018-03-23T05:06:37.409Z,65.6
2018-03-23T05:07:37.419Z,65.5
2018-03-23T05:08:37.711Z,65.6
2018-03-23T05:09:37.724Z,65.6
2018-03-23T05:10:37.735Z,65.5
2018-03-23T05:11:37.462Z,65.41
2018-03-23T05:12:37.478Z,65.54
2018-03-23T05:13:37.769Z,65.44
2018-03-23T05:14:37.573Z,65.82
2018-03-23T05:15:37.791Z,65.82
2018-03-23T05:16:37.801Z,65.54
2018-03-23T05:17:37.816Z,65.79
2018-03-23T05:18:37.540Z,65.6
2018-03-23T05:19:37.838Z,65.98
2018-03-23T05:20:37.565Z,65.73
2018-03-23T05:21:37.860Z,65.73
2018-03-23T05:22:37.595Z,65.73
2018-03-23T05:23:37.596Z,65.41
2018-03-23T05:24:37.891Z,65.54
2018-03-23T05:25:37.629Z,65.6
2018-03-23T05:26:37.629Z,65.54
2018-03-23T05:27:37.926Z,65.31
2018-03-23T05:28:37.657Z,65.5
2018-03-23T05:29:37.947Z,65.25
2018-03-23T05:30:37.955Z,65.69
2018-03-23T05:31:37.735Z,65.44
2018-03-23T05:32:38.339Z,65.44
2018-03-23T05:33:38.146Z,65.44
2018-03-23T05:34:38.021Z,65.63
2018-03-23T05:35:38.020Z,65.25
2018-03-23T05:36:38.027Z,65.69
2018-03-23T05:37:38.038Z,65.35
2018-03-23T05:38:38.046Z,65.63
2018-03-23T05:39:37.775Z,65.54
2018-03-23T05:40:37.837Z,65.82
2018-03-23T05:41:37.797Z,65.73
2018-03-23T05:42:38.093Z,65.63
2018-03-23T05:43:37.887Z,65.63
2018-03-23T05:44:37.834Z,65.54
2018-03-23T05:45:37.939Z,65.63
2018-03-23T05:46:37.853Z,65.73
2018-03-23T05:47:38.149Z,65.73
2018-03-23T05:48:38.162Z,65.54
2018-03-23T05:49:38.169Z,65.63
2018-03-23T05:50:38.187Z,65.63
2018-03-23T05:51:38.192Z,65.82
2018-03-23T05:52:38.203Z,65.63
2018-03-23T05:53:38.218Z,65.35
2018-03-23T05:54:38.223Z,65.54
2018-03-23T05:55:38.239Z,65.44
2018-03-23T05:56:37.967Z,65.54
2018-03-23T05:57:37.982Z,65.44
2018-03-23T05:58:38.271Z,65.54
2018-03-23T05:59:38.292Z,65.54
2018-03-23T06:00:38.010Z,65.82
2018-03-23T06:01:38.167Z,65.73
2018-03-23T06:02:38.035Z,65.63
2018-03-23T06:03:38.326Z,65.63
2018-03-23T06:04:38.344Z,65.63
2018-03-23T06:05:38.349Z,65.73
2018-03-23T06:06:38.076Z,65.82
2018-03-23T06:07:38.380Z,65.82
2018-03-23T06:08:38.101Z,65.63
2018-03-23T06:09:38.459Z,65.63
2018-03-23T06:10:38.403Z,65.63
2018-03-23T06:11:38.424Z,65.82
2018-03-23T06:12:38.426Z,65.63
2018-03-23T06:13:38.438Z,65.63
2018-03-23T06:14:38.171Z,65.63
2018-03-23T06:15:38.465Z,65.63
2018-03-23T06:16:38.473Z,65.35
2018-03-23T06:17:38.539Z,65.73
2018-03-23T06:18:38.214Z,65.82
2018-03-23T06:19:38.507Z,65.63
2018-03-23T06:20:38.525Z,65.54
2018-03-23T06:21:38.528Z,65.82
2018-03-23T06:22:38.542Z,65.82
2018-03-23T06:23:38.552Z,65.82
2018-03-23T06:24:38.283Z,65.63
2018-03-23T06:25:38.579Z,65.82
2018-03-23T06:26:38.586Z,65.25
2018-03-23T06:27:38.313Z,65.82
2018-03-23T06:28:38.611Z,65.54
2018-03-23T06:29:38.342Z,65.63
2018-03-23T06:30:38.633Z,65.54
2018-03-23T06:31:38.641Z,65.54
2018-03-23T06:32:38.369Z,65.63
2018-03-23T06:33:38.381Z,65.82
2018-03-23T06:34:38.677Z,65.63
2018-03-23T06:35:38.697Z,65.25
2018-03-23T06:36:38.700Z,65.73
2018-03-23T06:37:38.710Z,65.44
2018-03-23T06:38:38.727Z,65.54
2018-03-23T06:39:38.928Z,65.25
2018-03-23T06:40:38.744Z,65.63
2018-03-23T06:41:38.777Z,65.35
2018-03-23T06:42:38.769Z,65.44
2018-03-23T06:43:38.506Z,65.63
2018-03-23T06:44:38.508Z,65.44
2018-03-23T06:45:38.524Z,65.44
2018-03-23T06:46:38.529Z,65.73
2018-03-23T06:47:38.823Z,65.73
2018-03-23T06:48:38.906Z,65.44
2018-03-23T06:49:38.846Z,65.63
2018-03-23T06:50:38.579Z,65.54
2018-03-23T06:51:38.867Z,65.82
2018-03-23T06:52:38.596Z,65.82
2018-03-23T06:53:38.608Z,65.63
2018-03-23T06:54:38.902Z,65.82
2018-03-23T06:55:38.918Z,65.63
2018-03-23T06:56:38.926Z,65.82
2018-03-23T06:57:38.717Z,65.44
2018-03-23T06:58:38.953Z,65.54
2018-03-23T06:59:38.677Z,65.44
2018-03-23T07:00:38.984Z,65.63
2018-03-23T07:01:38.990Z,65.44
2018-03-23T07:02:38.712Z,65.44
2018-03-23T07:03:39.061Z,65.63
2018-03-23T07:04:39.025Z,65.54
2018-03-23T07:05:38.746Z,65.73
2018-03-23T07:06:38.755Z,65.73
2018-03-23T07:07:39.055Z,65.82
2018-03-23T07:08:39.066Z,66.11
2018-03-23T07:09:38.791Z,66.2
2018-03-23T07:10:39.086Z,66.01
2018-03-23T07:11:38.814Z,66.11
2018-03-23T07:12:39.116Z,66.01
2018-03-23T07:13:39.137Z,65.92
2018-03-23T07:14:39.136Z,65.92
2018-03-23T07:15:39.191Z,65.82
2018-03-23T07:16:39.153Z,66.01
2018-03-23T07:17:39.167Z,65.82
2018-03-23T07:18:39.180Z,65.73
2018-03-23T07:19:39.190Z,65.73
2018-03-23T07:20:39.198Z,65.92
2018-03-23T07:21:38.927Z,66.01
2018-03-23T07:22:38.941Z,66.01
2018-03-23T07:23:38.951Z,65.92
2018-03-23T07:24:38.961Z,66.01
2018-03-23T07:25:38.973Z,65.35
2018-03-23T07:26:38.986Z,65.73
2018-03-23T07:27:39.277Z,65.82
2018-03-23T07:28:39.356Z,65.82
2018-03-23T07:29:39.023Z,65.63
2018-03-23T07:30:39.313Z,66.3
2018-03-23T07:31:39.326Z,66.01
2018-03-23T07:32:39.337Z,66.01
2018-03-23T07:33:39.117Z,66.14
2018-03-23T07:34:39.365Z,66.52
2018-03-23T07:35:39.376Z,66.71
2018-03-23T07:36:39.382Z,66.52
2018-03-23T07:37:39.427Z,66.49
2018-03-23T07:38:39.412Z,66.3
2018-03-23T07:39:39.141Z,66.61
2018-03-23T07:40:39.431Z,66.24
2018-03-23T07:41:39.159Z,66.71
2018-03-23T07:42:39.457Z,66.71
2018-03-23T07:43:39.235Z,66.42
2018-03-23T07:44:39.475Z,65.76
2018-03-23T07:45:39.492Z,66.24
2018-03-23T07:46:39.498Z,65.86
2018-03-23T07:47:39.514Z,66.33
2018-03-23T07:48:39.532Z,65.86
2018-03-23T07:49:39.567Z,66.14
2018-03-23T07:50:39.548Z,66.05
2018-03-23T07:51:39.558Z,66.05
2018-03-23T07:52:39.578Z,65.57
2018-03-23T07:53:39.586Z,65.86
2018-03-23T07:54:39.593Z,65.67
2018-03-23T07:55:39.606Z,65.57
2018-03-23T07:56:39.615Z,65.67
2018-03-23T07:57:39.374Z,65.76
2018-03-23T07:58:39.358Z,65.47
2018-03-23T07:59:39.652Z,65.38
2018-03-23T08:00:39.664Z,65.38
2018-03-23T08:01:39.676Z,65.67
2018-03-23T08:02:39.688Z,65.67
2018-03-23T08:03:39.887Z,65.67
2018-03-23T08:04:39.713Z,65.76
2018-03-23T08:05:39.440Z,65.67
2018-03-23T08:06:39.735Z,65.57
2018-03-23T08:07:39.751Z,65.57
2018-03-23T08:08:39.476Z,65.57
2018-03-23T08:09:39.770Z,65.19
2018-03-23T08:10:39.792Z,65.19
2018-03-23T08:11:39.513Z,65.09
2018-03-23T08:12:39.805Z,65.03
2018-03-23T08:13:39.871Z,65.51
2018-03-23T08:14:39.832Z,65.03
2018-03-23T08:15:39.841Z,65.41
2018-03-23T08:16:39.857Z,65.41
2018-03-23T08:17:39.865Z,65.13
2018-03-23T08:18:39.935Z,65.51
2018-03-23T08:19:39.615Z,65.03
2018-03-23T08:20:39.905Z,65.41
2018-03-23T08:21:39.630Z,64.94
2018-03-23T08:22:39.943Z,64.94
2018-03-23T08:23:39.660Z,64.65
2018-03-23T08:24:39.666Z,65.13
2018-03-23T08:25:39.960Z,64.94
2018-03-23T08:26:39.972Z,65.22
2018-03-23T08:27:39.702Z,65.32
2018-03-23T08:28:39.998Z,64.75
2018-03-23T08:29:39.732Z,64.37
2018-03-23T08:30:40.023Z,64.27
2018-03-23T08:31:40.057Z,64.27
2018-03-23T08:32:40.074Z,64.56
2018-03-23T08:33:40.058Z,64.18
2018-03-23T08:34:40.071Z,64.65
2018-03-23T08:35:40.088Z,63.89
2018-03-23T08:36:40.099Z,63.89
2018-03-23T08:37:40.111Z,63.79
2018-03-23T08:38:39.837Z,64.27
2018-03-23T08:39:40.131Z,64.37
2018-03-23T08:40:40.144Z,64.08
2018-03-23T08:41:39.879Z,64.27
2018-03-23T08:42:39.885Z,63.99
2018-03-23T08:43:39.903Z,64.18
2018-03-23T08:44:40.252Z,64.46
2018-03-23T08:45:40.207Z,63.99
2018-03-23T08:46:40.220Z,63.99
2018-03-23T08:47:40.271Z,64.02
2018-03-23T08:48:40.243Z,63.92
2018-03-23T08:49:40.265Z,63.83
2018-03-23T08:50:40.272Z,63.54
2018-03-23T08:51:40.293Z,63.92
2018-03-23T08:52:40.293Z,63.73
2018-03-23T08:53:40.033Z,63.45
2018-03-23T08:54:40.085Z,63.64
2018-03-23T08:55:40.331Z,63.83
2018-03-23T08:56:40.062Z,63.35
2018-03-23T08:57:40.073Z,63.45
2018-03-23T08:58:40.085Z,63.54
2018-03-23T08:59:40.430Z,63.35
2018-03-23T09:00:40.110Z,63.64
2018-03-23T09:01:40.411Z,63.64
2018-03-23T09:02:40.136Z,63.35
2018-03-23T09:03:40.431Z,63.35
2018-03-23T09:04:40.443Z,63.35
2018-03-23T09:05:40.180Z,63.35
2018-03-23T09:06:40.185Z,63.45
2018-03-23T09:07:40.483Z,63.64
2018-03-23T09:08:40.493Z,63.54
2018-03-23T09:09:40.567Z,63.17
2018-03-23T09:10:40.520Z,62.97
2018-03-23T09:11:40.532Z,63.35
2018-03-23T09:12:40.546Z,63.1
2018-03-23T09:13:40.279Z,63.2
2018-03-23T09:14:40.621Z,63.01
2018-03-23T09:15:40.587Z,63.29
2018-03-23T09:16:40.677Z,63.01
2018-03-23T09:17:40.326Z,63.01
2018-03-23T09:18:40.625Z,63.29
2018-03-23T09:19:40.353Z,63.1
2018-03-23T09:20:40.736Z,63.2
2018-03-23T09:21:40.661Z,63.2
2018-03-23T09:22:40.391Z,63.1
2018-03-23T09:23:40.689Z,63.2
2018-03-23T09:24:40.700Z,63.57
2018-03-23T09:25:40.431Z,63.2
2018-03-23T09:26:40.727Z,63.01
2018-03-23T09:27:40.740Z,63.2
2018-03-23T09:28:40.753Z,63.2
2018-03-23T09:29:40.776Z,63.01
2018-03-23T09:30:40.501Z,63.1
2018-03-23T09:31:40.509Z,63.2
2018-03-23T09:32:40.810Z,63.29
2018-03-23T09:33:40.818Z,63.01
2018-03-23T09:34:40.840Z,63.2
2018-03-23T09:35:40.845Z,63.01
2018-03-23T09:36:40.575Z,63.29
2018-03-23T09:37:40.872Z,63.1
2018-03-23T09:38:40.884Z,63.39
2018-03-23T09:39:40.909Z,63.01
2018-03-23T09:40:40.911Z,62.91
2018-03-23T09:41:40.927Z,63.1
2018-03-23T09:42:40.940Z,62.91
2018-03-23T09:43:40.668Z,63.01
2018-03-23T09:44:40.964Z,63.1
2018-03-23T09:45:40.697Z,63.67
2018-03-23T09:46:40.996Z,63.29
2018-03-23T09:47:41.004Z,63.29
2018-03-23T09:48:41.067Z,63.2
2018-03-23T09:49:41.032Z,63.1
2018-03-23T09:50:41.045Z,63.57
2018-03-23T09:51:41.059Z,63.29
2018-03-23T09:52:40.790Z,63.1
2018-03-23T09:53:41.089Z,62.53
2018-03-23T09:54:40.817Z,62.91
2018-03-23T09:55:41.112Z,62.72
2018-03-23T09:56:41.130Z,62.43
2018-03-23T09:57:40.855Z,62.34
2018-03-23T09:58:41.158Z,62.62
2018-03-23T09:59:41.165Z,62.62
2018-03-23T10:00:40.896Z,62.62
2018-03-23T10:01:41.192Z,62.53
2018-03-23T10:02:41.206Z,62.72
2018-03-23T10:03:41.220Z,62.53
2018-03-23T10:04:41.246Z,62.53
2018-03-23T10:05:40.965Z,62.24
2018-03-23T10:06:40.978Z,62.53
2018-03-23T10:07:41.277Z,61.67
2018-03-23T10:08:41.003Z,61.77
2018-03-23T10:09:41.017Z,61.42
2018-03-23T10:10:41.032Z,61.7
2018-03-23T10:11:41.334Z,61.32
2018-03-23T10:12:41.352Z,61.8
2018-03-23T10:13:41.074Z,61.42
2018-03-23T10:14:41.086Z,61.22
2018-03-23T10:15:41.099Z,61.04
2018-03-23T10:16:41.396Z,61.04
2018-03-23T10:17:41.408Z,61.13
2018-03-23T10:18:41.425Z,61.13
2018-03-23T10:19:41.437Z,61.22
2018-03-23T10:20:41.223Z,61.04
2018-03-23T10:21:41.572Z,61.16
2018-03-23T10:22:41.477Z,61.45
2018-03-23T10:23:41.494Z,61.16
2018-03-23T10:24:41.222Z,60.88
2018-03-23T10:25:41.521Z,60.69
2018-03-23T10:26:41.533Z,60.97
2018-03-23T10:27:41.549Z,60.88
2018-03-23T10:28:41.634Z,60.59
2018-03-23T10:29:41.575Z,60.88
2018-03-23T10:30:41.591Z,60.49
2018-03-23T10:31:41.605Z,60.59
2018-03-23T10:32:41.623Z,60.4
2018-03-23T10:33:41.352Z,60.78
2018-03-23T10:34:41.361Z,59.83
2018-03-23T10:35:41.657Z,60.11
2018-03-23T10:36:41.393Z,60.4
2018-03-23T10:37:41.403Z,60.59
2018-03-23T10:38:41.709Z,60.02
2018-03-23T10:39:41.432Z,60.49
2018-03-23T10:40:41.446Z,60.21
2018-03-23T10:41:41.742Z,59.95
2018-03-23T10:42:41.758Z,59.95
2018-03-23T10:43:41.489Z,59.19
2018-03-23T10:44:41.784Z,59.86
2018-03-23T10:45:41.568Z,59.09
2018-03-23T10:46:41.552Z,59
2018-03-23T10:47:41.545Z,59.09
2018-03-23T10:48:41.844Z,59.48
2018-03-23T10:49:41.574Z,58.81
2018-03-23T10:50:41.587Z,59
2018-03-23T10:51:41.886Z,58.81
2018-03-23T10:52:41.990Z,59
2018-03-23T10:53:41.633Z,59
2018-03-23T10:54:41.929Z,58.43
2018-03-23T10:55:41.710Z,58.24
2018-03-23T10:56:41.674Z,58.52
2018-03-23T10:57:41.688Z,58.72
2018-03-23T10:58:41.989Z,57.86
2018-03-23T10:59:42.022Z,58.04
2018-03-23T11:00:42.038Z,57.95
2018-03-23T11:01:41.748Z,57.28
2018-03-23T11:02:42.059Z,57.57
2018-03-23T11:03:41.775Z,57.67
2018-03-23T11:04:42.073Z,57.57
2018-03-23T11:05:41.808Z,57.48
2018-03-23T11:06:42.111Z,57.95
2018-03-23T11:07:41.835Z,57.57
2018-03-23T11:08:41.849Z,57.48
2018-03-23T11:09:41.864Z,57.67
2018-03-23T11:10:41.879Z,57.57
2018-03-23T11:11:41.893Z,57
2018-03-23T11:12:42.196Z,57.38
2018-03-23T11:13:41.921Z,57.09
2018-03-23T11:14:41.936Z,57.09
2018-03-23T11:15:42.296Z,57.41
2018-03-23T11:16:41.967Z,57
2018-03-23T11:17:41.982Z,56.93
2018-03-23T11:18:42.283Z,57.38
2018-03-23T11:19:42.294Z,57.12
2018-03-23T11:20:42.075Z,57.12
2018-03-23T11:21:42.043Z,57.22
2018-03-23T11:22:42.343Z,57.12
2018-03-23T11:23:42.354Z,56.93
2018-03-23T11:24:42.086Z,56.84
2018-03-23T11:25:42.386Z,56.74
2018-03-23T11:26:42.401Z,56.36
2018-03-23T11:27:42.416Z,56.26
2018-03-23T11:28:42.432Z,56.07
2018-03-23T11:29:42.158Z,55.98
2018-03-23T11:30:42.174Z,55.69
2018-03-23T11:31:42.472Z,55.31
2018-03-23T11:32:42.494Z,55.31
2018-03-23T11:33:42.502Z,55.12
2018-03-23T11:34:42.518Z,55.69
2018-03-23T11:35:42.537Z,55.5
2018-03-23T11:36:42.550Z,55.98
2018-03-23T11:37:42.567Z,56.07
2018-03-23T11:38:42.577Z,56.07
2018-03-23T11:39:42.593Z,55.88
2018-03-23T11:40:42.607Z,55.88
2018-03-23T11:41:42.643Z,55.69
2018-03-23T11:42:42.356Z,55.88
2018-03-23T11:43:42.653Z,55.5
2018-03-23T11:44:42.721Z,55.69
2018-03-23T11:45:42.401Z,55.98
2018-03-23T11:46:42.697Z,56.07
2018-03-23T11:47:42.713Z,56.55
2018-03-23T11:48:42.446Z,55.98
2018-03-23T11:49:42.461Z,56.17
2018-03-23T11:50:42.541Z,55.69
2018-03-23T11:51:42.775Z,55.69
2018-03-23T11:52:42.797Z,55.5
2018-03-23T11:53:42.524Z,55.79
2018-03-23T11:54:42.816Z,55.69
2018-03-23T11:55:42.834Z,55.69
2018-03-23T11:56:42.849Z,55.88
2018-03-23T11:57:42.582Z,55.41
2018-03-23T11:58:42.597Z,55.21
2018-03-23T11:59:42.897Z,55.31
2018-03-23T12:00:42.915Z,55.31
2018-03-23T12:01:42.929Z,54.74
2018-03-23T12:02:42.943Z,54.93
2018-03-23T12:03:42.961Z,54.93
2018-03-23T12:04:42.971Z,54.93
2018-03-23T12:05:42.714Z,54.93
2018-03-23T12:06:43.008Z,55.41
2018-03-23T12:07:43.022Z,54.83
2018-03-23T12:08:43.030Z,54.64
2018-03-23T12:09:42.764Z,54.74
2018-03-23T12:10:43.077Z,54.45
2018-03-23T12:11:42.794Z,54.93
2018-03-23T12:12:43.095Z,54.36
2018-03-23T12:13:42.825Z,54.07
2018-03-23T12:14:42.842Z,53.69
2018-03-23T12:15:43.139Z,53.97
2018-03-23T12:16:42.871Z,54.07
2018-03-23T12:17:43.169Z,53.59
2018-03-23T12:18:43.184Z,53.91
2018-03-23T12:19:42.917Z,54.29
2018-03-23T12:20:43.216Z,53.91
2018-03-23T12:21:42.951Z,54.1
2018-03-23T12:22:43.256Z,54.19
2018-03-23T12:23:43.261Z,53.91
2018-03-23T12:24:43.277Z,54
2018-03-23T12:25:43.009Z,54.67
2018-03-23T12:26:43.025Z,53.59
2018-03-23T12:27:43.325Z,53.81
2018-03-23T12:28:43.378Z,53.62
2018-03-23T12:29:43.355Z,53.62
2018-03-23T12:30:43.380Z,54.1
2018-03-23T12:31:43.384Z,53.43
2018-03-23T12:32:43.401Z,53.53
2018-03-23T12:33:43.417Z,54.1
2018-03-23T12:34:43.434Z,54.38
2018-03-23T12:35:43.451Z,54
2018-03-23T12:36:43.463Z,53.53
2018-03-23T12:37:43.484Z,54.1
2018-03-23T12:38:43.211Z,53.78
2018-03-23T12:39:43.229Z,53.81
2018-03-23T12:40:43.245Z,53.81
2018-03-23T12:41:43.595Z,53.91
2018-03-23T12:42:43.558Z,53.59
2018-03-23T12:43:43.618Z,53.43
2018-03-23T12:44:43.306Z,53.91
2018-03-23T12:45:43.663Z,54
2018-03-23T12:46:43.668Z,53.33
2018-03-23T12:47:43.353Z,53.81
2018-03-23T12:48:43.367Z,54.38
2018-03-23T12:49:43.665Z,54.48
2018-03-23T12:50:43.681Z,53.81
2018-03-23T12:51:43.809Z,53.91
2018-03-23T12:52:43.712Z,53.24
2018-03-23T12:53:43.734Z,53.43
2018-03-23T12:54:43.464Z,53.45